Ardmore, OK

1:37 AM CST on February 10, 2016 (GMT -0600)
Ardmore Airpark | | Change Station
CLOSE
Current Station
Personal Weather Station
Location: Ardmore, OK
Elevation: 732 ft
Nearby Weather Stations
Active Advisory: Fire Weather Watch

Elev 732 ft 34.30 °N, 97.03 °W | Updated 13 seconds ago

Clear
Clear
34.6 °F
Feels Like 35 °F
N
0.0
Wind Variable Wind from North
Gusts 1.0 mph

Today
High -- | Low -- °F
--% Chance of Precip.
Yesterday
High -- | Low -- °F
Precip. -- in
Pressure 30.32 in
Visibility 10.0 miles
Clouds Clear
Windchill 35 °F
Dew Point 24 °F
Humidity 65%
Rainfall 0.00 in
Snow Depth Not available.
7:18 AM 6:06 PM
Waxing Crescent, 4% visible
METAR KADM 100715Z AUTO 00000KT 10SM CLR 00/M03 A3032 RMK AO2 T00021026
Pressure 30.32 in
Visibility 10.0 miles
Clouds Clear
Windchill 35 °F
Dew Point 24 °F
Humidity 65%
Rainfall 0.00 in
Snow Depth Not available.
7:18 AM 6:06 PM
Waxing Crescent, 4% visible
METAR KADM 100715Z AUTO 00000KT 10SM CLR 00/M03 A3032 RMK AO2 T00021026

10-Day Weather Forecast

Almanac

Astronomy

Feb. 10, 2016 Rise Set
Actual Time
Civil Twilight
Nautical Twilight
Astronomical Twilight
Moon
Length of Visible Light
Length of Day
Tomorrow will be .
, % of the Moon is Illuminated

Today's Extremes

State Highs State Lows

Community

WunderPhotos

Upload Photos

1,891,826 photos uploaded!

WunderBlog® & News

Nearby

Air Quality

  Air Quality AQ Index Pollutant
Not available.

Snow Depth

Station Depth Elevation

Earthquake Activity

City Distance Mag. Time & Date
Minimum magnitude displayed is 2.5.

Coastal Water Temperatures

Place Temperature

Stations

Nearby Weather Stations

Station Location Temp. Windchill Dew Point Humidity Wind Precip. Elev Updated Type
                   

Watches & Warnings

Fire Weather Watch
Issued: 8:59 PM CST Feb. 9, 2016 – National Weather Service

... Fire Weather Watch in effect from Wednesday morning through
Wednesday evening for breezy conditions... unseasonably warm
temperatures... and low relative humidity for parts of northern...
central... western... and southern Oklahoma as well as western
North Texas...

The National Weather Service in Norman has issued a Fire Weather
Watch... which is in effect from Wednesday morning through
Wednesday evening.

* Timing... 11 am to 7 PM.

* Wind... west to southwest 15 to 25 mph with gusts 20 to 30 mph.

* Humidity... 15 to 25 percent.

* Temperature... 65 to 80 degrees.

* Impacts... any fires that develop will likely spread rapidly.
Outdoor burning is not recommended.

Precautionary/preparedness actions...

Monitor weather forecasts and information.



Mbs